createdAt,value
2023-01-25T00:00:53.985Z,15.80
2023-01-25T00:03:23.217Z,15.80
2023-01-25T00:06:02.452Z,15.80
2023-01-25T00:08:31.711Z,15.80
2023-01-25T00:11:00.876Z,15.80
2023-01-25T00:13:29.940Z,15.80
2023-01-25T00:16:06.720Z,15.80
2023-01-25T00:18:35.881Z,15.80
2023-01-25T00:21:35.242Z,15.90
2023-01-25T00:24:05.925Z,15.90
2023-01-25T00:26:36.796Z,15.90
2023-01-25T00:29:06.644Z,15.90
2023-01-25T00:31:35.877Z,15.90
2023-01-25T00:34:26.375Z,15.90
2023-01-25T00:37:19.570Z,16.00
2023-01-25T00:39:49.074Z,16.00
2023-01-25T00:42:20.556Z,16.00
2023-01-25T00:44:50.935Z,16.10
2023-01-25T00:47:20.272Z,16.10
2023-01-25T00:49:49.564Z,16.20
2023-01-25T00:52:19.176Z,16.20
2023-01-25T00:54:48.290Z,16.30
2023-01-25T00:57:17.397Z,16.40
2023-01-25T00:59:48.414Z,16.40
2023-01-25T01:02:17.560Z,16.50
2023-01-25T01:04:46.997Z,16.50
2023-01-25T01:07:17.079Z,16.60
2023-01-25T01:09:46.237Z,16.60
2023-01-25T01:12:15.439Z,16.70
2023-01-25T01:14:44.522Z,16.80
2023-01-25T01:17:14.149Z,16.90
2023-01-25T01:19:43.376Z,17.00
2023-01-25T01:22:13.069Z,17.00
2023-01-25T01:24:43.312Z,17.10
2023-01-25T01:27:12.465Z,17.20
2023-01-25T01:29:41.675Z,17.20
2023-01-25T01:32:10.952Z,17.30
2023-01-25T01:34:40.136Z,17.30
2023-01-25T01:37:09.313Z,17.40
2023-01-25T01:39:38.470Z,17.50
2023-01-25T01:42:07.596Z,17.50
2023-01-25T01:44:54.432Z,17.60
2023-01-25T01:47:46.796Z,17.60
2023-01-25T01:50:25.822Z,17.70
2023-01-25T01:52:54.975Z,17.70
2023-01-25T01:55:26.250Z,17.80
2023-01-25T01:58:00.716Z,17.90
2023-01-25T02:00:38.320Z,17.90
2023-01-25T02:03:08.084Z,18.00
2023-01-25T02:05:58.726Z,18.10
2023-01-25T02:08:31.868Z,18.20
2023-01-25T02:11:03.158Z,18.30
2023-01-25T02:13:33.572Z,18.40
2023-01-25T02:16:03.513Z,18.40
2023-01-25T02:18:35.102Z,18.50
2023-01-25T02:21:04.371Z,18.60
2023-01-25T02:23:42.017Z,18.60
2023-01-25T02:26:12.502Z,18.70
2023-01-25T02:29:17.950Z,18.80
2023-01-25T02:31:50.557Z,18.80
2023-01-25T02:34:20.505Z,18.90
2023-01-25T02:36:52.573Z,18.90
2023-01-25T02:39:22.292Z,18.90
2023-01-25T02:41:51.512Z,19.00
2023-01-25T02:44:27.379Z,19.10
2023-01-25T02:46:57.320Z,19.20
2023-01-25T02:49:26.849Z,19.30
2023-01-25T02:52:01.204Z,19.30
2023-01-25T02:54:30.490Z,19.40
2023-01-25T02:57:00.159Z,19.40
2023-01-25T02:59:29.498Z,19.40
2023-01-25T03:01:58.973Z,19.50
2023-01-25T03:04:28.373Z,19.60
2023-01-25T03:06:57.780Z,19.60
2023-01-25T03:09:26.996Z,19.70
2023-01-25T03:11:56.207Z,19.70
2023-01-25T03:14:25.417Z,19.80
2023-01-25T03:16:54.867Z,19.80
2023-01-25T03:19:24.096Z,19.90
2023-01-25T03:21:53.320Z,20.00
2023-01-25T03:24:22.614Z,20.00
2023-01-25T03:27:10.051Z,20.10
2023-01-25T03:29:40.029Z,20.30
2023-01-25T03:32:10.042Z,20.40
2023-01-25T03:34:39.427Z,20.40
2023-01-25T03:37:08.680Z,20.50
2023-01-25T03:39:38.052Z,20.60
2023-01-25T03:42:07.467Z,20.60
2023-01-25T03:44:36.694Z,20.70
2023-01-25T03:47:06.095Z,20.80
2023-01-25T03:49:35.382Z,20.80
2023-01-25T03:52:04.761Z,20.90
2023-01-25T03:54:34.156Z,20.90
2023-01-25T03:57:03.379Z,21.00
2023-01-25T03:59:32.559Z,21.10
2023-01-25T04:02:01.897Z,21.20
2023-01-25T04:04:31.251Z,21.20
2023-01-25T04:07:00.468Z,21.30
2023-01-25T04:09:29.765Z,21.40
2023-01-25T04:11:58.965Z,21.50
2023-01-25T04:14:43.288Z,21.60
2023-01-25T04:17:14.006Z,21.60
2023-01-25T04:19:43.263Z,21.70
2023-01-25T04:22:13.841Z,21.80
2023-01-25T04:24:43.253Z,21.90
2023-01-25T04:27:12.863Z,22.00
2023-01-25T04:29:42.237Z,22.10
2023-01-25T04:32:11.773Z,22.20
2023-01-25T04:34:41.201Z,22.30
2023-01-25T04:37:10.348Z,22.30
2023-01-25T04:39:39.603Z,22.40
2023-01-25T04:42:08.823Z,22.50
2023-01-25T04:44:38.039Z,22.50
2023-01-25T04:47:07.269Z,22.60
2023-01-25T04:49:36.485Z,22.70
2023-01-25T04:52:06.090Z,22.80
2023-01-25T04:54:35.295Z,22.90
2023-01-25T04:57:04.869Z,23.00
2023-01-25T04:59:34.271Z,23.10
2023-01-25T05:02:03.565Z,23.20
2023-01-25T05:04:32.823Z,23.30
2023-01-25T05:07:02.158Z,23.40
2023-01-25T05:09:31.754Z,23.60
2023-01-25T05:12:01.079Z,23.70
2023-01-25T05:14:30.406Z,23.80
2023-01-25T05:16:59.741Z,23.90
2023-01-25T05:19:30.072Z,24.00
2023-01-25T05:21:59.284Z,24.10
2023-01-25T05:24:35.223Z,24.10
2023-01-25T05:27:05.698Z,24.10
2023-01-25T05:29:41.507Z,24.20
2023-01-25T05:32:23.902Z,24.20
2023-01-25T05:34:53.615Z,24.40
2023-01-25T05:37:23.747Z,24.60
2023-01-25T05:39:52.935Z,24.80
2023-01-25T05:42:22.398Z,25.00
2023-01-25T05:44:51.768Z,25.20
2023-01-25T05:47:22.055Z,25.30
2023-01-25T05:49:51.252Z,25.50
2023-01-25T05:52:20.450Z,25.60
2023-01-25T05:54:51.012Z,25.70
2023-01-25T05:57:20.198Z,25.90
2023-01-25T05:59:49.520Z,26.00
2023-01-25T06:02:18.857Z,26.10
2023-01-25T06:04:48.175Z,26.20
2023-01-25T06:07:17.496Z,26.30
2023-01-25T06:09:46.724Z,26.40
2023-01-25T06:12:17.128Z,26.40
2023-01-25T06:14:48.244Z,26.40
2023-01-25T06:17:17.804Z,26.40
2023-01-25T06:19:48.241Z,26.40
2023-01-25T06:22:17.521Z,26.40
2023-01-25T06:24:46.756Z,26.50
2023-01-25T06:27:16.108Z,26.50
2023-01-25T06:29:45.385Z,26.60
2023-01-25T06:32:14.673Z,26.60
2023-01-25T06:34:43.910Z,26.60
2023-01-25T06:37:13.202Z,26.70
2023-01-25T06:39:42.393Z,26.80
2023-01-25T06:42:11.789Z,26.80
2023-01-25T06:44:41.043Z,26.80
2023-01-25T06:47:13.685Z,26.80
2023-01-25T06:49:43.093Z,26.80
2023-01-25T06:52:12.354Z,26.80
2023-01-25T06:54:42.163Z,26.80
2023-01-25T06:57:13.059Z,26.80
2023-01-25T06:59:42.273Z,26.90
2023-01-25T07:02:17.558Z,27.00
2023-01-25T07:04:46.711Z,26.90
2023-01-25T07:07:16.064Z,26.90
2023-01-25T07:09:45.383Z,26.80
2023-01-25T07:12:14.574Z,26.80
2023-01-25T07:14:43.808Z,26.80
2023-01-25T07:17:13.018Z,26.80
2023-01-25T07:19:42.178Z,26.80
2023-01-25T07:22:11.462Z,26.80
2023-01-25T07:24:40.680Z,26.90
2023-01-25T07:27:09.977Z,26.90
2023-01-25T07:29:39.188Z,26.90
2023-01-25T07:32:08.427Z,26.90
2023-01-25T07:34:37.678Z,26.90
2023-01-25T07:37:07.098Z,27.00
2023-01-25T07:39:36.966Z,27.10
2023-01-25T07:42:06.531Z,27.10
2023-01-25T07:44:35.784Z,27.10
2023-01-25T07:47:05.232Z,27.10
2023-01-25T07:49:34.673Z,27.10
2023-01-25T07:52:03.955Z,27.20
2023-01-25T07:54:33.280Z,27.20
2023-01-25T07:57:02.473Z,27.30
2023-01-25T07:59:33.017Z,27.40
2023-01-25T08:02:02.231Z,27.40
2023-01-25T08:04:31.540Z,27.50
2023-01-25T08:07:00.724Z,27.50
2023-01-25T08:09:29.965Z,27.60
2023-01-25T08:11:59.275Z,27.50
2023-01-25T08:14:28.518Z,27.50
2023-01-25T08:16:58.225Z,27.50
2023-01-25T08:19:27.753Z,27.60
2023-01-25T08:21:56.948Z,27.60
2023-01-25T08:24:26.196Z,27.50
2023-01-25T08:26:55.532Z,27.50
2023-01-25T08:29:25.122Z,27.50
2023-01-25T08:31:54.312Z,27.50
2023-01-25T08:34:23.679Z,27.60
2023-01-25T08:36:52.957Z,27.60
2023-01-25T08:39:22.218Z,27.60
2023-01-25T08:41:51.422Z,27.60
2023-01-25T08:44:25.075Z,27.70
2023-01-25T08:46:54.797Z,27.70
2023-01-25T08:49:24.141Z,27.80
2023-01-25T08:51:53.893Z,27.80
2023-01-25T08:54:23.324Z,27.70
2023-01-25T08:56:52.982Z,27.70
2023-01-25T08:59:22.175Z,27.70
2023-01-25T09:01:51.530Z,27.60
2023-01-25T09:04:20.943Z,27.50
2023-01-25T09:06:50.124Z,27.50
2023-01-25T09:09:19.434Z,27.50
2023-01-25T09:11:48.628Z,27.50
2023-01-25T09:14:17.875Z,27.50
2023-01-25T09:16:47.681Z,27.50
2023-01-25T09:19:16.977Z,27.60
2023-01-25T09:21:46.170Z,27.60
2023-01-25T09:24:15.715Z,27.70
2023-01-25T09:26:55.941Z,27.70
2023-01-25T09:29:28.789Z,27.60
2023-01-25T09:31:57.936Z,27.60
2023-01-25T09:34:27.075Z,27.60
2023-01-25T09:36:56.183Z,27.60
2023-01-25T09:39:25.396Z,27.60
2023-01-25T09:42:41.922Z,27.60
2023-01-25T09:45:35.126Z,27.60
2023-01-25T09:48:35.594Z,27.50
2023-01-25T09:51:16.530Z,27.50
2023-01-25T09:53:53.599Z,27.50
2023-01-25T09:56:33.923Z,27.40
2023-01-25T09:59:17.145Z,27.40
2023-01-25T10:02:18.636Z,27.30
2023-01-25T10:04:52.847Z,27.30
2023-01-25T10:07:26.474Z,27.20
2023-01-25T10:10:34.132Z,27.10
2023-01-25T10:13:06.874Z,27.00
2023-01-25T10:15:49.270Z,26.90
2023-01-25T10:18:24.602Z,26.80
2023-01-25T10:20:59.696Z,26.70
2023-01-25T10:23:47.246Z,26.70
2023-01-25T10:26:34.110Z,26.60
2023-01-25T10:29:14.895Z,26.50
2023-01-25T10:31:51.957Z,26.50
2023-01-25T10:34:57.064Z,26.40
2023-01-25T10:37:33.970Z,26.40
2023-01-25T10:40:24.784Z,26.20
2023-01-25T10:43:07.938Z,26.20
2023-01-25T10:45:37.086Z,26.00
2023-01-25T10:48:13.623Z,26.00
2023-01-25T10:50:48.741Z,25.80
2023-01-25T10:53:35.259Z,25.70
2023-01-25T10:56:22.414Z,25.60
2023-01-25T10:59:06.418Z,25.50
2023-01-25T11:01:38.479Z,25.40
2023-01-25T11:04:29.928Z,25.30
2023-01-25T11:07:00.264Z,25.10
2023-01-25T11:09:38.988Z,25.10
2023-01-25T11:12:23.139Z,25.00
2023-01-25T11:14:52.830Z,24.80
2023-01-25T11:17:32.967Z,24.70
2023-01-25T11:20:22.095Z,24.60
2023-01-25T11:22:58.519Z,24.50
2023-01-25T11:25:34.866Z,24.40
2023-01-25T11:28:27.129Z,24.30
2023-01-25T11:30:56.245Z,24.20
2023-01-25T11:33:27.981Z,24.10
2023-01-25T11:36:32.545Z,24.00
2023-01-25T11:39:13.283Z,23.90
2023-01-25T11:42:23.307Z,23.90
2023-01-25T11:44:55.340Z,23.80
2023-01-25T11:48:07.337Z,23.70
2023-01-25T11:51:14.986Z,23.60
2023-01-25T11:54:31.341Z,23.60
2023-01-25T11:57:11.218Z,23.50
2023-01-25T12:00:24.995Z,23.50
2023-01-25T12:03:35.324Z,23.40
2023-01-25T12:06:55.632Z,23.30
2023-01-25T12:09:35.174Z,23.30
2023-01-25T12:12:35.270Z,23.20
2023-01-25T12:15:27.070Z,23.20
2023-01-25T12:18:16.701Z,23.20
2023-01-25T12:21:08.350Z,23.10
2023-01-25T12:24:00.651Z,23.10
2023-01-25T12:26:51.006Z,23.00
2023-01-25T12:29:47.628Z,23.00
2023-01-25T12:32:26.172Z,23.00
2023-01-25T12:35:38.914Z,22.90
2023-01-25T12:39:07.339Z,22.90
2023-01-25T12:42:17.340Z,22.80
2023-01-25T12:45:11.788Z,22.80
2023-01-25T12:48:05.702Z,22.80
2023-01-25T12:50:58.050Z,22.70
2023-01-25T12:53:43.519Z,22.70
2023-01-25T12:56:47.338Z,22.60
2023-01-25T12:59:55.639Z,22.60
2023-01-25T13:02:51.933Z,22.50
2023-01-25T13:05:38.767Z,22.50
2023-01-25T13:08:39.445Z,22.40
2023-01-25T13:11:28.754Z,22.40
2023-01-25T13:14:17.750Z,22.30
2023-01-25T13:17:09.375Z,22.30
2023-01-25T13:19:44.643Z,22.20
2023-01-25T13:22:17.400Z,22.20
2023-01-25T13:25:07.709Z,22.10
2023-01-25T13:27:37.673Z,22.10
2023-01-25T13:30:35.658Z,22.10
2023-01-25T13:33:08.252Z,22.00
2023-01-25T13:35:43.686Z,22.00
2023-01-25T13:38:34.668Z,21.90
2023-01-25T13:41:17.742Z,21.90
2023-01-25T13:43:53.455Z,21.90
2023-01-25T13:46:27.504Z,21.80
2023-01-25T13:49:05.142Z,21.80
2023-01-25T13:51:40.337Z,21.80
2023-01-25T13:54:18.211Z,21.80
2023-01-25T13:56:47.759Z,21.80
2023-01-25T13:59:28.651Z,21.70
2023-01-25T14:02:00.612Z,21.70
2023-01-25T14:04:34.349Z,21.60
2023-01-25T14:07:10.909Z,21.50
2023-01-25T14:09:44.101Z,21.50
2023-01-25T14:12:24.816Z,21.50
2023-01-25T14:14:54.140Z,21.50
2023-01-25T14:17:25.953Z,21.40
2023-01-25T14:19:57.621Z,21.40
2023-01-25T14:22:30.437Z,21.40
2023-01-25T14:25:20.201Z,21.30
2023-01-25T14:28:00.239Z,21.20
2023-01-25T14:30:33.294Z,21.20
2023-01-25T14:33:30.685Z,21.10
2023-01-25T14:36:24.595Z,21.10
2023-01-25T14:38:55.342Z,21.00
2023-01-25T14:41:31.671Z,21.00
2023-01-25T14:44:12.381Z,20.90
2023-01-25T14:46:43.419Z,20.90
2023-01-25T14:49:15.294Z,20.80
2023-01-25T14:52:00.484Z,20.70
2023-01-25T14:54:34.347Z,20.70
2023-01-25T14:57:09.421Z,20.60
2023-01-25T14:59:45.244Z,20.60
2023-01-25T15:02:17.199Z,20.60
2023-01-25T15:05:17.526Z,20.50
2023-01-25T15:07:59.188Z,20.50
2023-01-25T15:10:34.468Z,20.40
2023-01-25T15:13:30.620Z,20.40
2023-01-25T15:16:06.779Z,20.40
2023-01-25T15:18:53.846Z,20.30
2023-01-25T15:21:34.731Z,20.30
2023-01-25T15:24:13.540Z,20.20
2023-01-25T15:26:42.839Z,20.20
2023-01-25T15:29:22.958Z,20.20
2023-01-25T15:31:53.976Z,20.20
2023-01-25T15:34:36.121Z,20.10
2023-01-25T15:37:05.376Z,20.10
2023-01-25T15:39:35.951Z,20.10
2023-01-25T15:42:05.432Z,20.00
2023-01-25T15:44:34.597Z,20.00
2023-01-25T15:47:03.794Z,20.00
2023-01-25T15:49:33.672Z,20.00
2023-01-25T15:52:02.862Z,19.90
2023-01-25T15:54:32.087Z,19.90
2023-01-25T15:57:01.958Z,19.80
2023-01-25T15:59:31.217Z,19.80
2023-01-25T16:02:00.449Z,19.80
2023-01-25T16:04:29.711Z,19.70
2023-01-25T16:06:59.663Z,19.70
2023-01-25T16:09:31.943Z,19.60
2023-01-25T16:12:03.428Z,19.60
2023-01-25T16:14:32.745Z,19.50
2023-01-25T16:17:06.412Z,19.50
2023-01-25T16:19:35.921Z,19.40
2023-01-25T16:22:05.140Z,19.40
2023-01-25T16:24:34.308Z,19.30
2023-01-25T16:27:03.805Z,19.30
2023-01-25T16:29:33.047Z,19.30
2023-01-25T16:32:02.279Z,19.30
2023-01-25T16:34:31.591Z,19.30
2023-01-25T16:37:02.700Z,19.30
2023-01-25T16:39:35.187Z,19.30
2023-01-25T16:42:04.358Z,19.30
2023-01-25T16:44:33.527Z,19.30
2023-01-25T16:47:03.138Z,19.30
2023-01-25T16:49:34.418Z,19.30
2023-01-25T16:52:07.170Z,19.30
2023-01-25T16:54:36.362Z,19.20
2023-01-25T16:57:15.058Z,19.20
2023-01-25T16:59:48.930Z,19.20
2023-01-25T17:02:18.002Z,19.20
2023-01-25T17:04:47.214Z,19.20
2023-01-25T17:07:16.736Z,19.20
2023-01-25T17:09:45.986Z,19.20
2023-01-25T17:12:15.414Z,19.20
2023-01-25T17:14:44.692Z,19.10
2023-01-25T17:17:13.864Z,19.10
2023-01-25T17:19:43.411Z,19.10
2023-01-25T17:22:13.042Z,19.10
2023-01-25T17:24:42.810Z,19.10
2023-01-25T17:27:12.663Z,19.10
2023-01-25T17:29:41.998Z,19.10
2023-01-25T17:32:11.271Z,19.10
2023-01-25T17:34:40.679Z,19.10
2023-01-25T17:37:09.855Z,19.10
2023-01-25T17:39:39.092Z,19.00
2023-01-25T17:42:10.041Z,19.00
2023-01-25T17:44:39.261Z,19.10
2023-01-25T17:47:08.413Z,19.00
2023-01-25T17:49:37.627Z,19.10
2023-01-25T17:52:06.933Z,19.10
2023-01-25T17:54:37.270Z,19.10
2023-01-25T17:57:06.481Z,19.00
2023-01-25T17:59:35.690Z,19.00
2023-01-25T18:02:05.021Z,19.00
2023-01-25T18:04:36.095Z,19.10
2023-01-25T18:07:05.254Z,19.00
2023-01-25T18:09:36.712Z,19.00
2023-01-25T18:12:06.441Z,19.00
2023-01-25T18:14:36.063Z,19.10
2023-01-25T18:17:05.393Z,19.00
2023-01-25T18:19:34.971Z,19.00
2023-01-25T18:22:04.411Z,19.00
2023-01-25T18:24:38.088Z,18.90
2023-01-25T18:27:18.716Z,18.90
2023-01-25T18:30:22.537Z,18.90
2023-01-25T18:32:51.745Z,18.90
2023-01-25T18:35:21.160Z,18.80
2023-01-25T18:37:50.373Z,18.80
2023-01-25T18:40:20.830Z,18.80
2023-01-25T18:42:50.717Z,18.80
2023-01-25T18:45:20.354Z,18.80
2023-01-25T18:47:49.555Z,18.70
2023-01-25T18:50:18.961Z,18.70
2023-01-25T18:52:48.735Z,18.70
2023-01-25T18:55:18.065Z,18.70
2023-01-25T18:57:47.273Z,18.60
2023-01-25T19:00:19.675Z,18.60
2023-01-25T19:02:48.872Z,18.60
2023-01-25T19:05:20.933Z,18.60
2023-01-25T19:07:50.095Z,18.60
2023-01-25T19:10:20.040Z,18.50
2023-01-25T19:12:49.322Z,18.50
2023-01-25T19:15:18.625Z,18.50
2023-01-25T19:17:47.822Z,18.40
2023-01-25T19:20:20.546Z,18.40
2023-01-25T19:22:49.788Z,18.30
2023-01-25T19:25:19.144Z,18.30
2023-01-25T19:27:48.447Z,18.20
2023-01-25T19:30:17.782Z,18.20
2023-01-25T19:32:46.999Z,18.10
2023-01-25T19:35:16.272Z,18.00
2023-01-25T19:37:45.453Z,18.00
2023-01-25T19:40:15.621Z,18.00
2023-01-25T19:42:44.854Z,18.00
2023-01-25T19:45:14.234Z,17.90
2023-01-25T19:47:43.519Z,17.90
2023-01-25T19:50:13.468Z,17.90
2023-01-25T19:52:42.676Z,17.90
2023-01-25T19:55:12.254Z,17.90
2023-01-25T19:57:41.555Z,17.90
2023-01-25T20:00:12.635Z,17.90
2023-01-25T20:02:42.751Z,17.90
2023-01-25T20:05:12.342Z,17.90
2023-01-25T20:07:42.460Z,17.90
2023-01-25T20:10:12.895Z,17.80
2023-01-25T20:12:42.119Z,17.80
2023-01-25T20:15:14.228Z,17.80
2023-01-25T20:17:44.558Z,17.80
2023-01-25T20:20:14.866Z,17.80
2023-01-25T20:22:44.090Z,17.80
2023-01-25T20:25:13.324Z,17.80
2023-01-25T20:27:42.511Z,17.80
2023-01-25T20:30:12.859Z,17.70
2023-01-25T20:32:42.066Z,17.70
2023-01-25T20:35:11.795Z,17.70
2023-01-25T20:37:41.081Z,17.70
2023-01-25T20:40:11.232Z,17.60
2023-01-25T20:42:40.538Z,17.60
2023-01-25T20:45:13.264Z,17.60
2023-01-25T20:47:42.447Z,17.60
2023-01-25T20:50:12.675Z,17.60
2023-01-25T20:52:41.866Z,17.50
2023-01-25T20:55:11.713Z,17.50
2023-01-25T20:57:41.968Z,17.50
2023-01-25T21:00:12.348Z,17.50
2023-01-25T21:02:41.599Z,17.50
2023-01-25T21:05:11.525Z,17.40
2023-01-25T21:07:40.780Z,17.40
2023-01-25T21:10:11.128Z,17.40
2023-01-25T21:12:40.844Z,17.30
2023-01-25T21:15:11.663Z,17.30
2023-01-25T21:17:41.019Z,17.20
2023-01-25T21:20:11.956Z,17.30
2023-01-25T21:22:41.240Z,17.20
2023-01-25T21:25:13.543Z,17.20
2023-01-25T21:27:42.765Z,17.10
2023-01-25T21:30:13.160Z,17.10
2023-01-25T21:32:44.067Z,17.00
2023-01-25T21:35:13.231Z,17.00
2023-01-25T21:37:42.657Z,16.90
2023-01-25T21:40:13.551Z,16.90
2023-01-25T21:42:42.815Z,16.80
2023-01-25T21:45:31.412Z,16.70
2023-01-25T21:48:01.418Z,16.70
2023-01-25T21:50:48.702Z,16.60
2023-01-25T21:53:17.878Z,16.60
2023-01-25T21:55:47.021Z,16.50
2023-01-25T21:58:19.661Z,16.50
2023-01-25T22:00:48.815Z,16.50
2023-01-25T22:03:18.088Z,16.50
2023-01-25T22:05:47.280Z,16.40
2023-01-25T22:08:16.515Z,16.40
2023-01-25T22:10:45.690Z,16.40
2023-01-25T22:13:14.853Z,16.40
2023-01-25T22:15:44.097Z,16.40
2023-01-25T22:18:13.337Z,16.40
2023-01-25T22:20:42.445Z,16.40
2023-01-25T22:23:11.547Z,16.40
2023-01-25T22:25:40.696Z,16.40
2023-01-25T22:28:16.320Z,16.40
2023-01-25T22:30:45.481Z,16.40
2023-01-25T22:33:14.898Z,16.40
2023-01-25T22:35:43.971Z,16.40
2023-01-25T22:38:13.059Z,16.40
2023-01-25T22:40:42.204Z,16.40
2023-01-25T22:43:11.303Z,16.40
2023-01-25T22:45:40.480Z,16.50
2023-01-25T22:48:10.271Z,16.50
2023-01-25T22:50:39.353Z,16.40
2023-01-25T22:53:08.509Z,16.40
2023-01-25T22:55:37.695Z,16.40
2023-01-25T22:58:06.923Z,16.40
2023-01-25T23:00:36.134Z,16.40
2023-01-25T23:03:06.050Z,16.40
2023-01-25T23:05:35.243Z,16.40
2023-01-25T23:08:04.379Z,16.40
2023-01-25T23:10:33.546Z,16.40
2023-01-25T23:13:02.664Z,16.30
2023-01-25T23:15:31.916Z,16.40
2023-01-25T23:18:20.280Z,16.40
2023-01-25T23:20:49.471Z,16.40
2023-01-25T23:23:18.703Z,16.40
2023-01-25T23:25:48.767Z,16.40
2023-01-25T23:28:18.055Z,16.40
2023-01-25T23:30:47.263Z,16.40
2023-01-25T23:33:16.494Z,16.40
2023-01-25T23:35:45.687Z,16.50
2023-01-25T23:38:17.399Z,16.40
2023-01-25T23:40:47.107Z,16.40
2023-01-25T23:43:16.279Z,16.40
2023-01-25T23:45:45.596Z,16.40
2023-01-25T23:48:14.763Z,16.50
2023-01-25T23:50:43.919Z,16.50
2023-01-25T23:53:13.206Z,16.50
2023-01-25T23:55:42.368Z,16.40
2023-01-25T23:58:11.523Z,16.50
